Adin, CA

4:08 PM PDT on September 17, 2014 (GMT -0700)
Klamath Falls International | Change Station
CLOSE
Current Station
Airport
Location: Klamath Falls,
Elevation: 4091 ft
Nearby Weather Stations
Active Advisory: Fire Weather Warning

Elev 4091 ft 42.15 °N, 121.72 °W | Updated 15 minutes ago

Clear
Clear
77 °F
Feels Like 77 °F
N
22
Wind Variable Wind from South
Gusts 34 mph

Today
High -- | Low -- °F
--% Chance of Precip.
Yesterday
High -- | Low -- °F
Precip. -- in
6:46 AM 7:09 PM
Waning Crescent, 32% visible
Pressure 29.69 in
Visibility 10.0 miles
Clouds Clear
Dew Point 35 °F
Humidity 22%
Rainfall 0.00 in
Snow Depth 0 in , 0 in , 0 in
UV 4 out of 12
Pollen 6.60 out of 12
Air Quality Not available.
Flu Activity Not available.
METAR KLMT 172253Z 18019G30KT 10SM CLR 25/02 A2981 RMK AO2 PK WND 18033/2210 SLP054 T02500017

More Conditions Fewer Conditions

Pressure 29.69 in
Visibility 10.0 miles
Clouds Clear
Dew Point 35 °F
Humidity 22%
Rainfall 0.00 in
Snow Depth 0 in , 0 in , 0 in
UV 4 out of 12
Pollen 6.60 out of 12
Air Quality Not available.
Flu Activity Not available.
METAR KLMT 172253Z 18019G30KT 10SM CLR 25/02 A2981 RMK AO2 PK WND 18033/2210 SLP054 T02500017

More Conditions Fewer Conditions

10-Day Weather Forecast

Almanac

Astronomy

Sep. 17, 2014 Rise Set
Actual Time 6:46 AM PDT 7:09 PM PDT
Civil Twilight 6:18 AM PDT 7:36 PM PDT
Nautical Twilight 5:46 AM PDT 8:09 PM PDT
Astronomical Twilight 5:12 AM PDT 8:42 PM PDT
Moon 12:48 AM PDT 3:25 PM PDT
Length of Visible Light 13h 18m
Length of Day
12h 23m
Tomorrow will be 2m 43s shorter.
Waning Crescent, 32% of the Moon is Illuminated
Today
Waning Crescent
Sep 24
New
Oct 1
First Quarter
Oct 8
Full
Oct 15
Last Quarter

Today's Extremes

State Highs State Lows

Community

WunderPhotos

Upload Photos

1,754,187 photos uploaded!

Nearby

Snow Depth

Station Depth Elevation
Burnside Lake 0 in 8139 ft
Tahoe City Cross 0 in 6750 ft
Hagan's Meadow 0 in 8000 ft
Adin Mountain 0 in 6200 ft
CSS Lab 2 in 6900 ft

Earthquake Activity

City Distance Mag. Time & Date
Lakeview, Oregon 82 miles 3.0 10:14 AM PDT
2014-09-17
Lakeview, Oregon 82 miles 2.6 1:34 PM PDT
2014-09-16
Lakeview, Oregon 82 miles 2.5 4:10 AM PDT
2014-09-16
Lakeview, Oregon 82 miles 3.0 4:23 PM PDT
2014-09-15
Minimum magnitude displayed is 2.5.

Coastal Water Temperatures

Place Temperature
No Stations Reporting

Nearby Weather Stations